Frobisher Bay: Past 24 Hour Conditions

 

Pond Inlet Airport

12:00 AM EDT 19 April 2014
This table is a summary of hourly weather conditions for the past 24 hours.
Date / Time
(EDT)
Wind(knots) Conditions Visibility(km) Pressure(kPa) Air tempC) Relative humidity(%) Dew pointC) Wind Chill
19 April 2014
0:00 SSE 8 Mostly Cloudy 16 100.6 -15 66 -20 -23
18 April 2014
23:00 S 7 Mostly Cloudy 16 100.6 -16 67 -21 -23
22:00 SSE 6 Mostly Cloudy 16 100.6 -16 69 -20 -23
21:00 SSW 4 Sunny 16 100.6 -15 71 -19 -20
20:00 S 8 Sunny 16 100.6 -14 73 -18 -22
19:00 SSW 9 Sunny 16 100.6 -12 69 -17 -20
18:00 SSW 9 Partly Cloudy 32 100.5 -11 71 -16 -19
17:00 SSW 11 Mainly Sunny 32 100.5 -11 64 -16 -19
16:00 SSW 9 Partly Cloudy 32 100.5 -11 64 -16 -18
15:00 SW 11 Cloudy 32 100.4 -11 72 -15 -19
14:00 SW 14 Cloudy 32 100.4 -11 65 -16 -20
13:00 SW 12 Mostly Cloudy 32 100.4 -11 65 -16 -19
12:00 SW 13 Mostly Cloudy 32 100.4 -12 68 -16 -21
11:00 SW 13 Mostly Cloudy 32 100.3 -12 73 -16 -21
10:00 SW 16 Sunny 16 100.3 -12 72 -16 -22
9:00 S 13 Sunny 16 100.3 -12 70 -17 -22
8:00 S 14 Sunny 16 100.2 -14 70 -18 -23
7:00 S 16 Mainly Sunny 16 100.2 -14 71 -18 -24
6:00 S 16 Mainly Sunny 16 100.1 -14 73 -18 -25
5:00 S 17 Sunny 16 100.1 -14 72 -18 -25
4:00 S 20 Mainly Clear 16 100.0 -14 77 -18 -26
3:00 S 18 gust 23 Clear 16 100.0 -14 76 -17 -25
2:00 S 20 Clear 16 99.9 -14 77 -17 -26
1:00 S 17 Mainly Clear 16 99.8 -14 80 -16 -25
0:00 S 15 Partly Cloudy 16 99.8 -14 79 -17 -25
 
Map of Arctic - Eastern Arctic marine weather areas Baker Lake Airport Chesterfield Inlet Airport Coral Harbour Airport Gjoa Haven Airport Kugaaruk Airport Rankin Inlet Airport Shepherd Bay Airport Whale Cove Airport Arctic Bay Brevoort Island Qikiqtarjuaq Airport Cape Dorset Airport Cape Dyer Cape Hooper Clyde Airport Grise Fiord Airport Hall Beach Airport Igloolik Airport Iqaluit Airport Longstaff Bluff Pangnirtung Airport Pond Inlet Airport Repulse Bay Airport Resolute Airport Resolution Island Rowley Island Airport Taloyoak Airport Wager Bay Akulivik Airport Ivujivik Airport Puvirnituq Airport Kangiqsujuaq Airport Kangirsuk Airport Quaqtaq Airport Tasiujaq Airport Cape Kakkiviak Cape Kiglapait Nain Airport Saglek Cape Mercy Kimmirut Airport Aupaluk Airport Salluit Airport Kangiqsualujjuaq Airport Fort Ross
Legend: buoyBuoy land stationLand Station